createdAt,value
2023-02-27T00:02:34.662Z,15.68
2023-02-27T00:05:37.602Z,15.70
2023-02-27T00:08:40.736Z,15.10
2023-02-27T00:11:45.210Z,16.23
2023-02-27T00:14:48.249Z,15.07
2023-02-27T00:17:51.383Z,14.18
2023-02-27T00:20:54.940Z,15.27
2023-02-27T00:23:58.086Z,14.75
2023-02-27T00:27:02.510Z,14.82
2023-02-27T00:30:06.451Z,15.23
2023-02-27T00:33:09.485Z,14.48
2023-02-27T00:36:12.468Z,14.80
2023-02-27T00:39:16.237Z,13.48
2023-02-27T00:42:20.601Z,13.63
2023-02-27T00:45:23.601Z,14.30
2023-02-27T00:48:26.587Z,13.73
2023-02-27T00:51:29.645Z,13.45
2023-02-27T00:54:32.923Z,13.50
2023-02-27T00:57:37.745Z,14.18
2023-02-27T01:00:40.763Z,14.30
2023-02-27T01:03:43.924Z,13.38
2023-02-27T01:06:47.008Z,13.02
2023-02-27T01:09:50.075Z,13.70
2023-02-27T01:12:54.509Z,13.00
2023-02-27T01:15:57.498Z,13.80
2023-02-27T01:19:00.649Z,12.10
2023-02-27T01:22:03.624Z,12.63
2023-02-27T01:25:07.396Z,11.68
2023-02-27T01:28:11.868Z,12.52
2023-02-27T01:31:15.390Z,11.30
2023-02-27T01:34:18.656Z,13.52
2023-02-27T01:37:21.645Z,12.02
2023-02-27T01:40:24.743Z,12.60
2023-02-27T01:43:29.125Z,11.52
2023-02-27T01:46:33.464Z,11.63
2023-02-27T01:49:36.562Z,12.85
2023-02-27T01:52:42.297Z,11.23
2023-02-27T01:55:47.285Z,11.25
2023-02-27T01:58:55.393Z,11.23
2023-02-27T02:02:02.444Z,10.90
2023-02-27T02:05:09.146Z,10.38
2023-02-27T02:08:15.189Z,11.63
2023-02-27T02:11:20.463Z,10.80
2023-02-27T02:14:25.373Z,11.02
2023-02-27T02:17:40.330Z,10.52
2023-02-27T02:21:04.081Z,9.75
2023-02-27T02:24:43.465Z,10.77
2023-02-27T02:28:02.883Z,10.07
2023-02-27T02:31:49.736Z,9.70
2023-02-27T02:35:32.799Z,9.07
2023-02-27T02:39:00.298Z,10.48
2023-02-27T02:42:11.154Z,10.20
2023-02-27T02:45:18.950Z,9.60
2023-02-27T02:48:28.613Z,8.45
2023-02-27T02:51:36.154Z,9.45
2023-02-27T02:54:44.688Z,10.45
2023-02-27T02:57:54.345Z,9.60
2023-02-27T03:01:04.748Z,9.05
2023-02-27T03:04:13.917Z,10.75
2023-02-27T03:07:24.962Z,8.77
2023-02-27T03:10:34.526Z,8.15
2023-02-27T03:13:43.186Z,8.68
2023-02-27T03:16:49.778Z,8.07
2023-02-27T03:19:58.170Z,8.02
2023-02-27T03:23:06.520Z,8.95
2023-02-27T03:26:13.435Z,8.57
2023-02-27T03:29:23.761Z,8.57
2023-02-27T03:32:32.237Z,9.13
2023-02-27T03:35:45.104Z,8.07
2023-02-27T03:38:55.797Z,8.52
2023-02-27T03:42:07.228Z,7.75
2023-02-27T03:45:41.298Z,6.82
2023-02-27T03:48:45.041Z,7.03
2023-02-27T03:51:48.179Z,7.15
2023-02-27T03:54:57.438Z,7.32
2023-02-27T03:58:02.164Z,7.68
2023-02-27T04:01:05.661Z,7.05
2023-02-27T04:04:14.556Z,8.18
2023-02-27T04:07:44.600Z,7.60
2023-02-27T04:11:07.776Z,8.48
2023-02-27T04:14:33.070Z,8.10
2023-02-27T04:17:44.625Z,6.90
2023-02-27T04:20:55.496Z,6.18
2023-02-27T04:24:07.505Z,7.05
2023-02-27T04:27:21.564Z,5.60
2023-02-27T04:30:31.276Z,6.63
2023-02-27T04:33:44.520Z,5.95
2023-02-27T04:36:51.585Z,5.72
2023-02-27T04:39:59.115Z,5.43
2023-02-27T04:43:05.701Z,5.00
2023-02-27T04:46:14.214Z,4.97
2023-02-27T04:49:21.294Z,5.97
2023-02-27T04:52:30.079Z,6.25
2023-02-27T04:55:37.245Z,5.50
2023-02-27T04:58:46.354Z,5.32
2023-02-27T05:01:58.794Z,6.60
2023-02-27T05:05:07.413Z,4.78
2023-02-27T05:08:15.551Z,6.07
2023-02-27T05:11:26.694Z,5.28
2023-02-27T05:14:34.908Z,5.55
2023-02-27T05:17:46.146Z,6.68
2023-02-27T05:20:57.424Z,5.03
2023-02-27T05:24:12.581Z,5.00
2023-02-27T05:27:23.838Z,5.47
2023-02-27T05:30:31.960Z,4.55
2023-02-27T05:33:39.382Z,5.88
2023-02-27T05:36:47.088Z,5.03
2023-02-27T05:39:51.953Z,5.28
2023-02-27T05:43:01.939Z,5.05
2023-02-27T05:46:09.838Z,5.03
2023-02-27T05:49:18.126Z,4.63
2023-02-27T05:52:24.890Z,5.03
2023-02-27T05:55:33.811Z,4.78
2023-02-27T05:58:41.882Z,5.10
2023-02-27T06:01:46.411Z,5.18
2023-02-27T06:04:51.126Z,5.22
2023-02-27T06:07:54.037Z,5.63
2023-02-27T06:10:57.038Z,4.95
2023-02-27T06:14:00.047Z,4.25
2023-02-27T06:17:03.558Z,4.65
2023-02-27T06:20:09.922Z,4.93
2023-02-27T06:23:13.766Z,4.90
2023-02-27T06:26:16.730Z,4.80
2023-02-27T06:29:19.744Z,4.38
2023-02-27T06:32:25.233Z,5.63
2023-02-27T06:35:30.814Z,4.30
2023-02-27T06:38:34.215Z,4.90
2023-02-27T06:41:37.241Z,3.90
2023-02-27T06:44:40.309Z,5.20
2023-02-27T06:47:44.466Z,4.18
2023-02-27T06:50:52.766Z,4.82
2023-02-27T06:53:55.759Z,4.30
2023-02-27T06:56:58.701Z,3.95
2023-02-27T07:00:01.802Z,4.90
2023-02-27T07:03:05.114Z,4.70
2023-02-27T07:06:09.556Z,4.88
2023-02-27T07:09:12.503Z,4.25
2023-02-27T07:12:15.669Z,6.65
2023-02-27T07:15:18.841Z,7.13
2023-02-27T07:18:21.821Z,5.82
2023-02-27T07:21:26.222Z,7.78
2023-02-27T07:24:29.220Z,10.25
2023-02-27T07:27:32.407Z,10.25
2023-02-27T07:30:35.449Z,10.48
2023-02-27T07:33:38.472Z,11.10
2023-02-27T07:36:43.430Z,10.43
2023-02-27T07:39:46.510Z,10.30
2023-02-27T07:42:52.728Z,10.93
2023-02-27T07:45:56.070Z,9.80
2023-02-27T07:48:59.092Z,9.75
2023-02-27T07:52:03.606Z,8.98
2023-02-27T07:55:07.909Z,9.23
2023-02-27T07:58:10.933Z,7.60
2023-02-27T08:01:13.930Z,7.65
2023-02-27T08:04:16.976Z,8.35
2023-02-27T08:07:21.380Z,6.82
2023-02-27T08:10:24.923Z,8.18
2023-02-27T08:13:59.011Z,8.38
2023-02-27T08:16:51.519Z,10.45
2023-02-27T08:19:54.520Z,8.48
2023-02-27T08:22:58.993Z,13.77
2023-02-27T08:26:02.277Z,9.35
2023-02-27T08:29:05.295Z,8.48
2023-02-27T08:32:09.488Z,12.13
2023-02-27T08:35:13.009Z,4.88
2023-02-27T08:38:17.516Z,7.38
2023-02-27T08:41:20.638Z,9.10
2023-02-27T08:44:23.697Z,12.73
2023-02-27T08:47:26.714Z,8.80
2023-02-27T08:50:29.798Z,8.43
2023-02-27T08:53:34.158Z,5.53
2023-02-27T08:56:37.177Z,6.32
2023-02-27T08:59:40.226Z,7.22
2023-02-27T09:02:43.304Z,6.50
2023-02-27T09:05:46.381Z,8.95
2023-02-27T09:08:50.745Z,7.47
2023-02-27T09:11:54.046Z,7.68
2023-02-27T09:14:57.064Z,7.22
2023-02-27T09:18:03.961Z,6.32
2023-02-27T09:21:07.234Z,5.75
2023-02-27T09:24:19.590Z,7.95
2023-02-27T09:27:24.338Z,9.13
2023-02-27T09:30:27.644Z,7.57
2023-02-27T09:33:31.400Z,7.75
2023-02-27T09:36:34.996Z,9.48
2023-02-27T09:39:39.432Z,5.82
2023-02-27T09:42:46.568Z,6.03
2023-02-27T09:45:54.399Z,6.68
2023-02-27T09:49:00.287Z,5.13
2023-02-27T09:52:03.791Z,6.55
2023-02-27T09:55:16.470Z,5.43
2023-02-27T09:58:33.120Z,6.93
2023-02-27T10:01:41.365Z,6.30
2023-02-27T10:04:54.497Z,5.13
2023-02-27T10:08:03.928Z,6.65
2023-02-27T10:11:10.810Z,6.18
2023-02-27T10:14:29.528Z,9.45
2023-02-27T10:17:37.397Z,11.85
2023-02-27T10:20:44.772Z,11.70
2023-02-27T10:23:54.020Z,13.02
2023-02-27T10:27:00.561Z,6.97
2023-02-27T10:30:28.535Z,6.88
2023-02-27T10:33:36.647Z,10.32
2023-02-27T10:36:41.079Z,9.50
2023-02-27T10:39:48.658Z,14.88
2023-02-27T10:42:54.348Z,11.43
2023-02-27T10:45:58.004Z,9.55
2023-02-27T10:49:05.497Z,9.63
2023-02-27T10:52:11.141Z,15.93
2023-02-27T10:55:20.212Z,11.85
2023-02-27T10:58:25.385Z,7.50
2023-02-27T11:01:43.599Z,6.75
2023-02-27T11:04:53.770Z,13.77
2023-02-27T11:08:10.745Z,4.70
2023-02-27T11:11:13.807Z,6.88
2023-02-27T11:14:27.891Z,12.20
2023-02-27T11:17:32.870Z,5.50
2023-02-27T11:20:39.786Z,11.50
2023-02-27T11:23:52.326Z,16.98
2023-02-27T11:26:57.542Z,8.80
2023-02-27T11:30:03.902Z,9.85
2023-02-27T11:33:19.022Z,7.40
2023-02-27T11:36:23.641Z,6.88
2023-02-27T11:39:31.079Z,10.02
2023-02-27T11:42:37.385Z,9.48
2023-02-27T11:46:16.007Z,6.90
2023-02-27T11:49:22.519Z,8.70
2023-02-27T11:52:32.733Z,10.40
2023-02-27T11:55:37.101Z,8.43
2023-02-27T11:58:45.480Z,6.32
2023-02-27T12:01:54.413Z,10.63
2023-02-27T12:05:02.306Z,8.27
2023-02-27T12:08:11.586Z,9.95
2023-02-27T12:11:21.687Z,7.50
2023-02-27T12:14:31.772Z,6.93
2023-02-27T12:17:41.994Z,12.38
2023-02-27T12:20:53.058Z,10.60
2023-02-27T12:23:59.914Z,8.73
2023-02-27T12:27:16.125Z,13.60
2023-02-27T12:30:22.283Z,16.98
2023-02-27T12:33:37.327Z,8.75
2023-02-27T12:36:40.419Z,9.23
2023-02-27T12:39:45.759Z,11.55
2023-02-27T12:43:09.452Z,13.20
2023-02-27T12:46:27.009Z,14.35
2023-02-27T12:49:42.695Z,14.98
2023-02-27T12:52:58.963Z,14.05
2023-02-27T12:56:07.358Z,11.98
2023-02-27T12:59:24.013Z,8.65
2023-02-27T13:02:41.158Z,15.75
2023-02-27T13:05:53.157Z,14.85
2023-02-27T13:09:11.395Z,8.82
2023-02-27T13:12:24.425Z,10.27
2023-02-27T13:15:35.086Z,11.75
2023-02-27T13:18:43.439Z,10.65
2023-02-27T13:21:54.424Z,14.52
2023-02-27T13:25:00.881Z,9.88
2023-02-27T13:28:08.845Z,8.10
2023-02-27T13:31:21.265Z,7.47
2023-02-27T13:34:31.603Z,12.07
2023-02-27T13:37:53.847Z,10.25
2023-02-27T13:40:56.921Z,11.05
2023-02-27T13:44:01.346Z,7.63
2023-02-27T13:47:52.193Z,11.13
2023-02-27T13:50:55.188Z,8.25
2023-02-27T13:54:22.910Z,7.65
2023-02-27T13:57:27.809Z,11.80
2023-02-27T14:00:32.565Z,7.82
2023-02-27T14:03:35.744Z,15.48
2023-02-27T14:06:45.338Z,11.15
2023-02-27T14:09:53.032Z,11.88
2023-02-27T14:12:57.553Z,12.65
2023-02-27T14:16:00.947Z,7.65
2023-02-27T14:19:04.961Z,12.48
2023-02-27T14:22:37.321Z,10.20
2023-02-27T14:25:46.564Z,8.48
2023-02-27T14:28:55.761Z,9.18
2023-02-27T14:32:01.609Z,7.57
2023-02-27T14:35:07.461Z,8.73
2023-02-27T14:38:12.912Z,8.45
2023-02-27T14:41:39.969Z,7.70
2023-02-27T14:44:46.744Z,7.40
2023-02-27T14:47:50.718Z,8.68
2023-02-27T14:50:57.962Z,7.28
2023-02-27T14:54:03.435Z,9.95
2023-02-27T14:57:08.332Z,10.02
2023-02-27T15:00:38.050Z,5.57
2023-02-27T15:03:46.413Z,6.78
2023-02-27T15:06:52.235Z,8.02
2023-02-27T15:09:57.287Z,7.35
2023-02-27T15:13:02.797Z,7.40
2023-02-27T15:16:34.144Z,6.85
2023-02-27T15:19:37.560Z,9.00
2023-02-27T15:22:40.885Z,9.23
2023-02-27T15:25:44.033Z,6.40
2023-02-27T15:28:50.173Z,8.27
2023-02-27T15:31:54.444Z,8.90
2023-02-27T15:34:58.927Z,11.90
2023-02-27T15:38:02.636Z,10.65
2023-02-27T15:41:06.141Z,9.23
2023-02-27T15:44:14.204Z,13.75
2023-02-27T15:47:23.197Z,9.45
2023-02-27T15:50:29.963Z,9.18
2023-02-27T15:53:34.086Z,8.57
2023-02-27T15:56:39.702Z,6.82
2023-02-27T15:59:44.730Z,7.35
2023-02-27T16:02:51.128Z,10.07
2023-02-27T16:05:54.410Z,10.25
2023-02-27T16:09:00.275Z,7.55
2023-02-27T16:12:22.125Z,7.85
2023-02-27T16:15:30.969Z,7.82
2023-02-27T16:18:37.248Z,12.20
2023-02-27T16:21:42.275Z,9.48
2023-02-27T16:24:46.022Z,7.57
2023-02-27T16:27:51.323Z,9.73
2023-02-27T16:30:55.814Z,7.22
2023-02-27T16:34:01.644Z,8.38
2023-02-27T16:37:06.973Z,11.20
2023-02-27T16:40:15.154Z,11.93
2023-02-27T16:43:18.252Z,9.98
2023-02-27T16:46:23.726Z,8.43
2023-02-27T16:49:29.110Z,8.25
2023-02-27T16:52:32.167Z,8.15
2023-02-27T16:55:35.494Z,8.07
2023-02-27T16:58:38.475Z,10.90
2023-02-27T17:01:43.698Z,6.70
2023-02-27T17:04:47.988Z,10.50
2023-02-27T17:07:51.037Z,8.55
2023-02-27T17:10:54.204Z,8.15
2023-02-27T17:13:57.257Z,6.55
2023-02-27T17:17:01.716Z,7.10
2023-02-27T17:20:07.258Z,11.75
2023-02-27T17:23:12.892Z,10.65
2023-02-27T17:26:17.422Z,9.90
2023-02-27T17:29:20.661Z,16.33
2023-02-27T17:32:25.080Z,7.30
2023-02-27T17:35:30.200Z,6.80
2023-02-27T17:38:33.795Z,10.10
2023-02-27T17:41:36.840Z,9.38
2023-02-27T17:44:40.327Z,8.75
2023-02-27T17:47:44.807Z,15.02
2023-02-27T17:50:47.749Z,11.35
2023-02-27T17:53:50.709Z,9.93
2023-02-27T17:56:53.691Z,9.68
2023-02-27T17:59:56.793Z,8.77
2023-02-27T18:03:01.840Z,9.05
2023-02-27T18:06:05.565Z,8.05
2023-02-27T18:09:08.528Z,7.68
2023-02-27T18:12:11.453Z,7.55
2023-02-27T18:15:14.548Z,10.85
2023-02-27T18:18:19.798Z,6.47
2023-02-27T18:21:24.565Z,7.70
2023-02-27T18:24:28.206Z,14.07
2023-02-27T18:27:31.339Z,9.77
2023-02-27T18:30:38.231Z,7.43
2023-02-27T18:33:44.350Z,8.05
2023-02-27T18:36:48.053Z,7.40
2023-02-27T18:39:51.125Z,9.52
2023-02-27T18:42:54.148Z,12.07
2023-02-27T18:45:57.666Z,10.43
2023-02-27T18:49:02.348Z,14.07
2023-02-27T18:52:05.301Z,11.73
2023-02-27T18:55:08.965Z,11.90
2023-02-27T18:58:11.987Z,19.38
2023-02-27T19:01:25.681Z,12.35
2023-02-27T19:04:33.132Z,12.45
2023-02-27T19:07:36.398Z,11.00
2023-02-27T19:10:39.621Z,13.63
2023-02-27T19:13:42.657Z,15.73
2023-02-27T19:16:46.378Z,12.10
2023-02-27T19:19:50.774Z,11.55
2023-02-27T19:22:54.313Z,12.30
2023-02-27T19:26:00.575Z,14.77
2023-02-27T19:29:03.991Z,13.60
2023-02-27T19:32:08.463Z,17.25
2023-02-27T19:35:15.232Z,12.07
2023-02-27T19:38:18.337Z,10.27
2023-02-27T19:41:22.633Z,13.73
2023-02-27T19:44:26.523Z,13.77
2023-02-27T19:47:29.594Z,17.33
2023-02-27T19:50:34.534Z,17.30
2023-02-27T19:53:39.745Z,12.20
2023-02-27T19:56:43.599Z,14.98
2023-02-27T19:59:46.844Z,11.40
2023-02-27T20:02:49.870Z,12.15
2023-02-27T20:05:54.364Z,16.58
2023-02-27T20:08:59.301Z,15.68
2023-02-27T20:12:02.398Z,14.68
2023-02-27T20:15:09.902Z,11.95
2023-02-27T20:18:12.878Z,17.70
2023-02-27T20:21:19.721Z,14.95
2023-02-27T20:24:24.526Z,9.68
2023-02-27T20:27:28.356Z,20.98
2023-02-27T20:30:31.421Z,16.70
2023-02-27T20:33:34.420Z,18.10
2023-02-27T20:36:39.541Z,16.70
2023-02-27T20:39:45.151Z,20.42
2023-02-27T20:42:48.143Z,20.75
2023-02-27T20:45:51.534Z,16.80
2023-02-27T20:48:56.892Z,14.48
2023-02-27T20:52:01.258Z,15.02
2023-02-27T20:55:04.486Z,18.73
2023-02-27T20:58:07.516Z,13.90
2023-02-27T21:01:11.682Z,17.08
2023-02-27T21:04:14.833Z,19.15
2023-02-27T21:07:22.596Z,19.25
2023-02-27T21:10:25.699Z,15.68
2023-02-27T21:13:28.686Z,16.98
2023-02-27T21:16:31.699Z,18.85
2023-02-27T21:19:34.897Z,16.10
2023-02-27T21:22:39.325Z,14.52
2023-02-27T21:25:42.864Z,17.58
2023-02-27T21:28:47.836Z,20.35
2023-02-27T21:31:52.342Z,16.33
2023-02-27T21:34:55.349Z,16.27
2023-02-27T21:37:59.853Z,15.15
2023-02-27T21:41:06.986Z,15.35
2023-02-27T21:44:12.391Z,14.10
2023-02-27T21:47:15.425Z,15.40
2023-02-27T21:50:21.761Z,16.35
2023-02-27T21:53:26.409Z,17.55
2023-02-27T21:56:30.829Z,13.48
2023-02-27T21:59:34.213Z,14.30
2023-02-27T22:02:37.254Z,15.98
2023-02-27T22:05:41.689Z,14.43
2023-02-27T22:08:46.139Z,18.30
2023-02-27T22:11:49.385Z,14.60
2023-02-27T22:14:52.446Z,16.77
2023-02-27T22:17:55.603Z,12.43
2023-02-27T22:20:58.569Z,15.63
2023-02-27T22:24:03.639Z,15.25
2023-02-27T22:27:06.615Z,14.88
2023-02-27T22:30:11.019Z,12.80
2023-02-27T22:33:13.990Z,15.25
2023-02-27T22:36:19.380Z,12.73
2023-02-27T22:39:23.925Z,14.57
2023-02-27T22:42:27.062Z,14.13
2023-02-27T22:45:30.064Z,17.95
2023-02-27T22:48:33.200Z,15.43
2023-02-27T22:51:36.419Z,12.88
2023-02-27T22:54:40.828Z,13.68
2023-02-27T22:57:43.910Z,15.23
2023-02-27T23:00:47.071Z,13.70
2023-02-27T23:03:51.742Z,13.50
2023-02-27T23:06:55.974Z,15.20
2023-02-27T23:10:00.309Z,15.73
2023-02-27T23:13:03.293Z,14.23
2023-02-27T23:16:11.507Z,15.30
2023-02-27T23:19:16.297Z,15.65
2023-02-27T23:22:19.459Z,13.23
2023-02-27T23:25:24.182Z,15.82
2023-02-27T23:28:27.283Z,17.55
2023-02-27T23:31:32.250Z,12.77
2023-02-27T23:34:48.941Z,14.65
2023-02-27T23:37:53.044Z,15.98
2023-02-27T23:40:57.829Z,17.17
2023-02-27T23:44:18.245Z,19.90
2023-02-27T23:47:38.579Z,14.90
2023-02-27T23:50:44.140Z,18.05
2023-02-27T23:53:47.080Z,19.00
2023-02-27T23:56:51.437Z,16.92
2023-02-27T23:59:54.416Z,14.82
